sensor_id;sensor_type;location;lat;lon;timestamp;temperature;humidity
33699;DHT22;20032;52.436;13.312;2022-07-29T00:00:28;18.90;91.90
33699;DHT22;20032;52.436;13.312;2022-07-29T00:02:54;18.80;91.90
33699;DHT22;20032;52.436;13.312;2022-07-29T00:05:19;18.80;91.90
33699;DHT22;20032;52.436;13.312;2022-07-29T00:07:45;18.90;91.90
33699;DHT22;20032;52.436;13.312;2022-07-29T00:10:10;18.90;92.10
33699;DHT22;20032;52.436;13.312;2022-07-29T00:12:36;18.90;92.30
33699;DHT22;20032;52.436;13.312;2022-07-29T00:15:02;18.80;92.10
33699;DHT22;20032;52.436;13.312;2022-07-29T00:17:27;18.80;92.50
33699;DHT22;20032;52.436;13.312;2022-07-29T00:19:53;18.80;92.50
33699;DHT22;20032;52.436;13.312;2022-07-29T00:22:19;18.70;92.50
33699;DHT22;20032;52.436;13.312;2022-07-29T00:24:47;18.60;92.80
33699;DHT22;20032;52.436;13.312;2022-07-29T00:27:12;18.60;92.80
33699;DHT22;20032;52.436;13.312;2022-07-29T00:29:38;18.60;92.90
33699;DHT22;20032;52.436;13.312;2022-07-29T00:32:03;18.60;92.80
33699;DHT22;20032;52.436;13.312;2022-07-29T00:34:30;18.60;93.10
33699;DHT22;20032;52.436;13.312;2022-07-29T00:37:15;18.60;93.10
33699;DHT22;20032;52.436;13.312;2022-07-29T00:39:41;18.60;93.20
33699;DHT22;20032;52.436;13.312;2022-07-29T00:42:07;18.60;93.60
33699;DHT22;20032;52.436;13.312;2022-07-29T00:44:38;18.50;93.40
33699;DHT22;20032;52.436;13.312;2022-07-29T00:47:03;18.50;93.60
33699;DHT22;20032;52.436;13.312;2022-07-29T00:49:29;18.50;93.70
33699;DHT22;20032;52.436;13.312;2022-07-29T00:51:54;18.40;93.80
33699;DHT22;20032;52.436;13.312;2022-07-29T00:54:20;18.40;94.20
33699;DHT22;20032;52.436;13.312;2022-07-29T00:56:46;18.30;94.20
33699;DHT22;20032;52.436;13.312;2022-07-29T00:59:11;18.30;94.40
33699;DHT22;20032;52.436;13.312;2022-07-29T01:01:37;18.20;94.90
33699;DHT22;20032;52.436;13.312;2022-07-29T01:04:02;18.20;94.80
33699;DHT22;20032;52.436;13.312;2022-07-29T01:06:28;18.20;94.90
33699;DHT22;20032;52.436;13.312;2022-07-29T01:08:54;18.10;95.10
33699;DHT22;20032;52.436;13.312;2022-07-29T01:11:19;18.20;95.10
33699;DHT22;20032;52.436;13.312;2022-07-29T01:13:46;18.10;95.30
33699;DHT22;20032;52.436;13.312;2022-07-29T01:16:21;18.10;95.60
33699;DHT22;20032;52.436;13.312;2022-07-29T01:18:50;18.10;95.50
33699;DHT22;20032;52.436;13.312;2022-07-29T01:21:55;18.10;95.50
33699;DHT22;20032;52.436;13.312;2022-07-29T01:24:30;18.10;95.70
33699;DHT22;20032;52.436;13.312;2022-07-29T01:27:09;18.10;95.80
33699;DHT22;20032;52.436;13.312;2022-07-29T01:29:44;18.00;96.10
33699;DHT22;20032;52.436;13.312;2022-07-29T01:32:14;18.00;96.30
33699;DHT22;20032;52.436;13.312;2022-07-29T01:34:48;18.00;96.40
33699;DHT22;20032;52.436;13.312;2022-07-29T01:37:21;18.00;96.60
33699;DHT22;20032;52.436;13.312;2022-07-29T01:39:49;17.90;96.60
33699;DHT22;20032;52.436;13.312;2022-07-29T01:42:30;17.90;96.70
33699;DHT22;20032;52.436;13.312;2022-07-29T01:45:07;17.90;96.80
33699;DHT22;20032;52.436;13.312;2022-07-29T01:47:41;17.90;97.00
33699;DHT22;20032;52.436;13.312;2022-07-29T01:50:11;17.90;97.20
33699;DHT22;20032;52.436;13.312;2022-07-29T01:52:44;17.90;97.00
33699;DHT22;20032;52.436;13.312;2022-07-29T01:55:16;17.80;97.30
33699;DHT22;20032;52.436;13.312;2022-07-29T01:57:46;17.80;97.50
33699;DHT22;20032;52.436;13.312;2022-07-29T02:00:13;17.80;97.50
33699;DHT22;20032;52.436;13.312;2022-07-29T02:02:41;17.90;97.40
33699;DHT22;20032;52.436;13.312;2022-07-29T02:05:10;17.90;97.40
33699;DHT22;20032;52.436;13.312;2022-07-29T02:07:36;17.80;97.60
33699;DHT22;20032;52.436;13.312;2022-07-29T02:10:04;17.80;97.80
33699;DHT22;20032;52.436;13.312;2022-07-29T02:12:31;17.80;98.00
33699;DHT22;20032;52.436;13.312;2022-07-29T02:14:59;17.70;97.90
33699;DHT22;20032;52.436;13.312;2022-07-29T02:17:33;17.60;98.20
33699;DHT22;20032;52.436;13.312;2022-07-29T02:20:02;17.60;98.30
33699;DHT22;20032;52.436;13.312;2022-07-29T02:22:29;17.60;98.50
33699;DHT22;20032;52.436;13.312;2022-07-29T02:24:57;17.60;98.70
33699;DHT22;20032;52.436;13.312;2022-07-29T02:27:23;17.60;98.60
33699;DHT22;20032;52.436;13.312;2022-07-29T02:29:51;17.70;98.70
33699;DHT22;20032;52.436;13.312;2022-07-29T02:32:19;17.70;98.80
33699;DHT22;20032;52.436;13.312;2022-07-29T02:34:47;17.70;99.20
33699;DHT22;20032;52.436;13.312;2022-07-29T02:37:15;17.70;98.80
33699;DHT22;20032;52.436;13.312;2022-07-29T02:39:43;17.70;98.60
33699;DHT22;20032;52.436;13.312;2022-07-29T02:42:12;17.70;98.60
33699;DHT22;20032;52.436;13.312;2022-07-29T02:44:39;17.70;98.80
33699;DHT22;20032;52.436;13.312;2022-07-29T02:47:17;17.60;98.90
33699;DHT22;20032;52.436;13.312;2022-07-29T02:49:57;17.60;98.90
33699;DHT22;20032;52.436;13.312;2022-07-29T02:52:37;17.70;98.80
33699;DHT22;20032;52.436;13.312;2022-07-29T02:57:44;17.60;99.10
33699;DHT22;20032;52.436;13.312;2022-07-29T03:00:12;17.70;99.10
33699;DHT22;20032;52.436;13.312;2022-07-29T03:02:42;17.60;99.10
33699;DHT22;20032;52.436;13.312;2022-07-29T03:05:13;17.60;99.30
33699;DHT22;20032;52.436;13.312;2022-07-29T03:07:42;17.60;99.30
33699;DHT22;20032;52.436;13.312;2022-07-29T03:10:09;17.60;99.50
33699;DHT22;20032;52.436;13.312;2022-07-29T03:12:35;17.60;99.50
33699;DHT22;20032;52.436;13.312;2022-07-29T03:15:01;17.50;99.60
33699;DHT22;20032;52.436;13.312;2022-07-29T03:17:27;17.60;99.90
33699;DHT22;20032;52.436;13.312;2022-07-29T03:19:53;17.50;99.80
33699;DHT22;20032;52.436;13.312;2022-07-29T03:22:20;17.50;99.90
33699;DHT22;20032;52.436;13.312;2022-07-29T03:24:45;17.40;99.90
33699;DHT22;20032;52.436;13.312;2022-07-29T03:27:11;17.40;99.90
33699;DHT22;20032;52.436;13.312;2022-07-29T03:29:36;17.40;99.90
33699;DHT22;20032;52.436;13.312;2022-07-29T03:32:04;17.40;99.90
33699;DHT22;20032;52.436;13.312;2022-07-29T03:34:30;17.40;99.90
33699;DHT22;20032;52.436;13.312;2022-07-29T03:36:55;17.40;99.90
33699;DHT22;20032;52.436;13.312;2022-07-29T03:39:24;17.40;99.90
33699;DHT22;20032;52.436;13.312;2022-07-29T03:41:53;17.40;99.90
33699;DHT22;20032;52.436;13.312;2022-07-29T03:44:20;17.30;99.90
33699;DHT22;20032;52.436;13.312;2022-07-29T03:46:48;17.30;99.90
33699;DHT22;20032;52.436;13.312;2022-07-29T03:49:15;17.30;99.90
33699;DHT22;20032;52.436;13.312;2022-07-29T03:51:41;17.30;99.90
33699;DHT22;20032;52.436;13.312;2022-07-29T03:54:07;17.40;99.90
33699;DHT22;20032;52.436;13.312;2022-07-29T03:56:35;17.30;99.90
33699;DHT22;20032;52.436;13.312;2022-07-29T03:59:02;17.30;99.90
33699;DHT22;20032;52.436;13.312;2022-07-29T04:01:29;17.40;99.90
33699;DHT22;20032;52.436;13.312;2022-07-29T04:03:57;17.30;99.90
33699;DHT22;20032;52.436;13.312;2022-07-29T04:06:22;17.40;99.90
33699;DHT22;20032;52.436;13.312;2022-07-29T04:08:48;17.30;99.90
33699;DHT22;20032;52.436;13.312;2022-07-29T04:11:13;17.30;99.90
33699;DHT22;20032;52.436;13.312;2022-07-29T04:13:39;17.40;99.90
33699;DHT22;20032;52.436;13.312;2022-07-29T04:16:05;17.40;99.90
33699;DHT22;20032;52.436;13.312;2022-07-29T04:18:30;17.40;99.90
33699;DHT22;20032;52.436;13.312;2022-07-29T04:20:56;17.30;99.90
33699;DHT22;20032;52.436;13.312;2022-07-29T04:23:24;17.30;99.90
33699;DHT22;20032;52.436;13.312;2022-07-29T04:25:49;17.30;99.90
33699;DHT22;20032;52.436;13.312;2022-07-29T04:28:15;17.30;99.90
33699;DHT22;20032;52.436;13.312;2022-07-29T04:30:40;17.30;99.90
33699;DHT22;20032;52.436;13.312;2022-07-29T04:33:06;17.20;99.90
33699;DHT22;20032;52.436;13.312;2022-07-29T04:35:36;17.30;99.90
33699;DHT22;20032;52.436;13.312;2022-07-29T04:38:03;17.30;99.90
33699;DHT22;20032;52.436;13.312;2022-07-29T04:40:28;17.30;99.90
33699;DHT22;20032;52.436;13.312;2022-07-29T04:42:54;17.30;99.90
33699;DHT22;20032;52.436;13.312;2022-07-29T04:45:20;17.30;99.90
33699;DHT22;20032;52.436;13.312;2022-07-29T04:47:45;17.30;99.90
33699;DHT22;20032;52.436;13.312;2022-07-29T04:50:11;17.40;99.90
33699;DHT22;20032;52.436;13.312;2022-07-29T04:52:36;17.50;99.90
33699;DHT22;20032;52.436;13.312;2022-07-29T04:55:03;17.50;99.90
33699;DHT22;20032;52.436;13.312;2022-07-29T04:57:29;17.50;99.90
33699;DHT22;20032;52.436;13.312;2022-07-29T04:59:55;17.50;99.90
33699;DHT22;20032;52.436;13.312;2022-07-29T05:02:20;17.40;99.90
33699;DHT22;20032;52.436;13.312;2022-07-29T05:04:47;17.50;99.90
33699;DHT22;20032;52.436;13.312;2022-07-29T05:07:12;17.50;99.90
33699;DHT22;20032;52.436;13.312;2022-07-29T05:09:38;17.50;99.90
33699;DHT22;20032;52.436;13.312;2022-07-29T05:12:04;17.50;99.90
33699;DHT22;20032;52.436;13.312;2022-07-29T05:14:29;17.50;99.90
33699;DHT22;20032;52.436;13.312;2022-07-29T05:16:55;17.50;99.90
33699;DHT22;20032;52.436;13.312;2022-07-29T05:19:22;17.50;99.90
33699;DHT22;20032;52.436;13.312;2022-07-29T05:21:48;17.50;99.90
33699;DHT22;20032;52.436;13.312;2022-07-29T05:24:14;17.40;99.90
33699;DHT22;20032;52.436;13.312;2022-07-29T05:26:40;17.40;99.90
33699;DHT22;20032;52.436;13.312;2022-07-29T05:29:05;17.50;99.90
33699;DHT22;20032;52.436;13.312;2022-07-29T05:31:31;17.50;99.90
33699;DHT22;20032;52.436;13.312;2022-07-29T05:33:57;17.50;99.90
33699;DHT22;20032;52.436;13.312;2022-07-29T05:36:22;17.50;99.90
33699;DHT22;20032;52.436;13.312;2022-07-29T05:38:48;17.50;99.90
33699;DHT22;20032;52.436;13.312;2022-07-29T05:41:13;17.50;99.90
33699;DHT22;20032;52.436;13.312;2022-07-29T05:43:39;17.50;99.90
33699;DHT22;20032;52.436;13.312;2022-07-29T05:46:04;17.60;99.90
33699;DHT22;20032;52.436;13.312;2022-07-29T05:48:30;17.60;99.90
33699;DHT22;20032;52.436;13.312;2022-07-29T05:50:55;17.60;99.90
33699;DHT22;20032;52.436;13.312;2022-07-29T05:53:21;17.70;99.90
33699;DHT22;20032;52.436;13.312;2022-07-29T05:55:47;17.80;99.90
33699;DHT22;20032;52.436;13.312;2022-07-29T05:58:13;18.00;99.90
33699;DHT22;20032;52.436;13.312;2022-07-29T06:00:38;18.00;99.90
33699;DHT22;20032;52.436;13.312;2022-07-29T06:03:04;18.10;99.90
33699;DHT22;20032;52.436;13.312;2022-07-29T06:05:29;18.20;99.90
33699;DHT22;20032;52.436;13.312;2022-07-29T06:07:55;18.30;99.90
33699;DHT22;20032;52.436;13.312;2022-07-29T06:10:20;18.30;99.50
33699;DHT22;20032;52.436;13.312;2022-07-29T06:12:46;18.30;99.50
33699;DHT22;20032;52.436;13.312;2022-07-29T06:15:11;18.40;99.90
33699;DHT22;20032;52.436;13.312;2022-07-29T06:17:37;18.50;99.90
33699;DHT22;20032;52.436;13.312;2022-07-29T06:20:03;18.50;99.30
33699;DHT22;20032;52.436;13.312;2022-07-29T06:22:28;18.50;99.10
33699;DHT22;20032;52.436;13.312;2022-07-29T06:24:54;18.50;99.30
33699;DHT22;20032;52.436;13.312;2022-07-29T06:27:19;18.50;99.40
33699;DHT22;20032;52.436;13.312;2022-07-29T06:29:45;18.60;99.00
33699;DHT22;20032;52.436;13.312;2022-07-29T06:32:10;18.70;99.20
33699;DHT22;20032;52.436;13.312;2022-07-29T06:34:36;18.80;98.80
33699;DHT22;20032;52.436;13.312;2022-07-29T06:37:09;18.80;98.70
33699;DHT22;20032;52.436;13.312;2022-07-29T06:39:35;18.70;99.00
33699;DHT22;20032;52.436;13.312;2022-07-29T06:42:03;18.80;98.90
33699;DHT22;20032;52.436;13.312;2022-07-29T06:44:28;18.90;98.80
33699;DHT22;20032;52.436;13.312;2022-07-29T06:46:55;18.90;98.50
33699;DHT22;20032;52.436;13.312;2022-07-29T06:49:20;18.90;98.60
33699;DHT22;20032;52.436;13.312;2022-07-29T06:51:46;18.90;98.60
33699;DHT22;20032;52.436;13.312;2022-07-29T06:54:11;19.00;98.60
33699;DHT22;20032;52.436;13.312;2022-07-29T06:56:37;19.00;98.40
33699;DHT22;20032;52.436;13.312;2022-07-29T06:59:04;19.10;98.70
33699;DHT22;20032;52.436;13.312;2022-07-29T07:01:30;19.20;98.70
33699;DHT22;20032;52.436;13.312;2022-07-29T07:03:55;19.30;98.30
33699;DHT22;20032;52.436;13.312;2022-07-29T07:06:21;19.40;98.00
33699;DHT22;20032;52.436;13.312;2022-07-29T07:08:47;19.50;97.90
33699;DHT22;20032;52.436;13.312;2022-07-29T07:11:12;19.60;97.70
33699;DHT22;20032;52.436;13.312;2022-07-29T07:13:38;19.70;97.60
33699;DHT22;20032;52.436;13.312;2022-07-29T07:16:04;19.70;97.50
33699;DHT22;20032;52.436;13.312;2022-07-29T07:18:30;19.80;97.80
33699;DHT22;20032;52.436;13.312;2022-07-29T07:20:56;19.90;97.80
33699;DHT22;20032;52.436;13.312;2022-07-29T07:23:22;20.10;97.30
33699;DHT22;20032;52.436;13.312;2022-07-29T07:25:47;20.20;97.40
33699;DHT22;20032;52.436;13.312;2022-07-29T07:28:13;20.50;97.30
33699;DHT22;20032;52.436;13.312;2022-07-29T07:30:39;20.60;96.30
33699;DHT22;20032;52.436;13.312;2022-07-29T07:33:05;20.80;96.20
33699;DHT22;20032;52.436;13.312;2022-07-29T07:35:30;21.00;96.40
33699;DHT22;20032;52.436;13.312;2022-07-29T07:37:56;21.00;95.10
33699;DHT22;20032;52.436;13.312;2022-07-29T07:40:22;21.10;95.30
33699;DHT22;20032;52.436;13.312;2022-07-29T07:42:47;21.30;94.60
33699;DHT22;20032;52.436;13.312;2022-07-29T07:45:13;21.30;94.30
33699;DHT22;20032;52.436;13.312;2022-07-29T07:47:39;21.40;94.10
33699;DHT22;20032;52.436;13.312;2022-07-29T07:50:06;21.50;94.50
33699;DHT22;20032;52.436;13.312;2022-07-29T07:52:32;21.70;94.70
33699;DHT22;20032;52.436;13.312;2022-07-29T07:54:58;21.90;94.10
33699;DHT22;20032;52.436;13.312;2022-07-29T07:57:23;22.20;93.20
33699;DHT22;20032;52.436;13.312;2022-07-29T07:59:48;22.20;92.70
33699;DHT22;20032;52.436;13.312;2022-07-29T08:02:14;22.20;92.70
33699;DHT22;20032;52.436;13.312;2022-07-29T08:04:39;22.10;92.90
33699;DHT22;20032;52.436;13.312;2022-07-29T08:07:06;22.00;92.70
33699;DHT22;20032;52.436;13.312;2022-07-29T08:09:33;22.00;93.00
33699;DHT22;20032;52.436;13.312;2022-07-29T08:11:59;21.90;93.00
33699;DHT22;20032;52.436;13.312;2022-07-29T08:14:27;22.10;92.60
33699;DHT22;20032;52.436;13.312;2022-07-29T08:16:53;22.40;92.80
33699;DHT22;20032;52.436;13.312;2022-07-29T08:19:18;22.50;92.20
33699;DHT22;20032;52.436;13.312;2022-07-29T08:21:44;22.70;91.70
33699;DHT22;20032;52.436;13.312;2022-07-29T08:24:09;22.80;91.40
33699;DHT22;20032;52.436;13.312;2022-07-29T08:26:55;23.00;91.60
33699;DHT22;20032;52.436;13.312;2022-07-29T08:29:20;23.00;90.40
33699;DHT22;20032;52.436;13.312;2022-07-29T08:31:46;22.90;90.30
33699;DHT22;20032;52.436;13.312;2022-07-29T08:34:11;23.00;90.30
33699;DHT22;20032;52.436;13.312;2022-07-29T08:36:37;23.00;90.30
33699;DHT22;20032;52.436;13.312;2022-07-29T08:39:04;23.10;90.10
33699;DHT22;20032;52.436;13.312;2022-07-29T08:41:30;23.10;89.80
33699;DHT22;20032;52.436;13.312;2022-07-29T08:43:56;23.10;90.00
33699;DHT22;20032;52.436;13.312;2022-07-29T08:46:22;23.10;89.20
33699;DHT22;20032;52.436;13.312;2022-07-29T08:48:48;23.00;89.40
33699;DHT22;20032;52.436;13.312;2022-07-29T08:51:16;22.90;90.20
33699;DHT22;20032;52.436;13.312;2022-07-29T08:53:44;23.00;90.20
33699;DHT22;20032;52.436;13.312;2022-07-29T08:56:12;23.00;90.20
33699;DHT22;20032;52.436;13.312;2022-07-29T08:58:39;23.00;90.10
33699;DHT22;20032;52.436;13.312;2022-07-29T09:01:06;23.10;90.10
33699;DHT22;20032;52.436;13.312;2022-07-29T09:03:34;23.20;90.90
33699;DHT22;20032;52.436;13.312;2022-07-29T09:06:02;23.30;90.40
33699;DHT22;20032;52.436;13.312;2022-07-29T09:08:27;23.50;89.50
33699;DHT22;20032;52.436;13.312;2022-07-29T09:10:53;23.80;89.80
33699;DHT22;20032;52.436;13.312;2022-07-29T09:13:21;24.00;90.30
33699;DHT22;20032;52.436;13.312;2022-07-29T09:15:47;24.30;87.80
33699;DHT22;20032;52.436;13.312;2022-07-29T09:18:12;24.40;86.80
33699;DHT22;20032;52.436;13.312;2022-07-29T09:20:56;24.50;85.60
33699;DHT22;20032;52.436;13.312;2022-07-29T09:23:48;24.30;86.30
33699;DHT22;20032;52.436;13.312;2022-07-29T09:26:28;24.20;86.50
33699;DHT22;20032;52.436;13.312;2022-07-29T09:28:54;24.20;86.20
33699;DHT22;20032;52.436;13.312;2022-07-29T09:31:34;24.20;87.00
33699;DHT22;20032;52.436;13.312;2022-07-29T09:33:59;24.20;86.60
33699;DHT22;20032;52.436;13.312;2022-07-29T09:36:26;24.20;85.30
33699;DHT22;20032;52.436;13.312;2022-07-29T09:38:59;24.20;86.90
33699;DHT22;20032;52.436;13.312;2022-07-29T09:41:26;24.30;87.30
33699;DHT22;20032;52.436;13.312;2022-07-29T09:43:55;24.60;86.30
33699;DHT22;20032;52.436;13.312;2022-07-29T09:46:20;24.70;82.80
33699;DHT22;20032;52.436;13.312;2022-07-29T09:49:06;24.80;82.50
33699;DHT22;20032;52.436;13.312;2022-07-29T09:51:31;24.90;81.70
33699;DHT22;20032;52.436;13.312;2022-07-29T09:53:57;24.90;81.30
33699;DHT22;20032;52.436;13.312;2022-07-29T09:56:39;24.90;79.40
33699;DHT22;20032;52.436;13.312;2022-07-29T09:59:05;24.90;79.80
33699;DHT22;20032;52.436;13.312;2022-07-29T10:01:31;24.90;79.50
33699;DHT22;20032;52.436;13.312;2022-07-29T10:03:57;25.10;79.60
33699;DHT22;20032;52.436;13.312;2022-07-29T10:06:23;25.30;79.30
33699;DHT22;20032;52.436;13.312;2022-07-29T10:08:48;25.50;78.30
33699;DHT22;20032;52.436;13.312;2022-07-29T10:11:16;25.70;76.90
33699;DHT22;20032;52.436;13.312;2022-07-29T10:13:44;25.90;77.30
33699;DHT22;20032;52.436;13.312;2022-07-29T10:16:11;26.10;75.70
33699;DHT22;20032;52.436;13.312;2022-07-29T10:18:39;26.00;73.70
33699;DHT22;20032;52.436;13.312;2022-07-29T10:21:05;26.00;73.60
33699;DHT22;20032;52.436;13.312;2022-07-29T10:23:34;25.90;73.50
33699;DHT22;20032;52.436;13.312;2022-07-29T10:26:00;26.00;73.70
33699;DHT22;20032;52.436;13.312;2022-07-29T10:28:25;26.00;72.90
33699;DHT22;20032;52.436;13.312;2022-07-29T10:30:52;26.10;72.20
33699;DHT22;20032;52.436;13.312;2022-07-29T10:33:47;26.30;71.40
33699;DHT22;20032;52.436;13.312;2022-07-29T10:36:21;26.60;71.20
33699;DHT22;20032;52.436;13.312;2022-07-29T10:38:52;27.00;70.00
33699;DHT22;20032;52.436;13.312;2022-07-29T10:44:25;27.00;71.50
33699;DHT22;20032;52.436;13.312;2022-07-29T10:46:51;26.90;70.90
33699;DHT22;20032;52.436;13.312;2022-07-29T10:49:19;26.50;70.60
33699;DHT22;20032;52.436;13.312;2022-07-29T10:51:55;26.30;70.00
33699;DHT22;20032;52.436;13.312;2022-07-29T10:54:39;26.00;71.20
33699;DHT22;20032;52.436;13.312;2022-07-29T10:57:27;26.10;72.20
33699;DHT22;20032;52.436;13.312;2022-07-29T11:02:43;25.90;73.10
33699;DHT22;20032;52.436;13.312;2022-07-29T11:05:10;25.80;71.80
33699;DHT22;20032;52.436;13.312;2022-07-29T11:07:38;25.80;72.60
33699;DHT22;20032;52.436;13.312;2022-07-29T11:10:20;26.30;73.10
33699;DHT22;20032;52.436;13.312;2022-07-29T11:12:47;27.00;71.20
33699;DHT22;20032;52.436;13.312;2022-07-29T11:15:14;27.40;69.20
33699;DHT22;20032;52.436;13.312;2022-07-29T11:20:32;28.10;68.80
33699;DHT22;20032;52.436;13.312;2022-07-29T11:22:58;28.40;67.60
33699;DHT22;20032;52.436;13.312;2022-07-29T11:25:25;28.60;67.30
33699;DHT22;20032;52.436;13.312;2022-07-29T11:27:52;29.00;67.70
33699;DHT22;20032;52.436;13.312;2022-07-29T11:30:19;29.30;65.60
33699;DHT22;20032;52.436;13.312;2022-07-29T11:32:45;29.40;65.20
33699;DHT22;20032;52.436;13.312;2022-07-29T11:35:17;29.80;66.70
33699;DHT22;20032;52.436;13.312;2022-07-29T11:37:44;29.90;64.00
33699;DHT22;20032;52.436;13.312;2022-07-29T11:40:12;30.10;64.90
33699;DHT22;20032;52.436;13.312;2022-07-29T11:42:40;29.90;63.40
33699;DHT22;20032;52.436;13.312;2022-07-29T11:45:18;30.30;65.60
33699;DHT22;20032;52.436;13.312;2022-07-29T11:50:17;30.70;63.30
33699;DHT22;20032;52.436;13.312;2022-07-29T11:52:45;30.50;64.10
33699;DHT22;20032;52.436;13.312;2022-07-29T11:55:14;30.70;63.90
33699;DHT22;20032;52.436;13.312;2022-07-29T11:57:59;31.10;63.10
33699;DHT22;20032;52.436;13.312;2022-07-29T12:00:28;31.40;64.30
33699;DHT22;20032;52.436;13.312;2022-07-29T12:02:55;31.30;64.20
33699;DHT22;20032;52.436;13.312;2022-07-29T12:05:30;31.70;62.90
33699;DHT22;20032;52.436;13.312;2022-07-29T12:08:06;31.80;61.90
33699;DHT22;20032;52.436;13.312;2022-07-29T12:10:31;31.70;62.90
33699;DHT22;20032;52.436;13.312;2022-07-29T12:12:57;31.40;62.90
33699;DHT22;20032;52.436;13.312;2022-07-29T12:15:22;31.50;63.90
33699;DHT22;20032;52.436;13.312;2022-07-29T12:17:49;32.10;62.50
33699;DHT22;20032;52.436;13.312;2022-07-29T12:22:50;32.30;62.90
33699;DHT22;20032;52.436;13.312;2022-07-29T12:25:16;32.80;62.20
33699;DHT22;20032;52.436;13.312;2022-07-29T12:27:43;32.60;61.50
33699;DHT22;20032;52.436;13.312;2022-07-29T12:30:11;32.40;62.20
33699;DHT22;20032;52.436;13.312;2022-07-29T12:32:40;32.60;62.00
33699;DHT22;20032;52.436;13.312;2022-07-29T12:35:09;32.70;63.40
33699;DHT22;20032;52.436;13.312;2022-07-29T12:37:36;33.30;61.00
33699;DHT22;20032;52.436;13.312;2022-07-29T12:40:03;33.40;60.60
33699;DHT22;20032;52.436;13.312;2022-07-29T12:42:29;32.90;62.30
33699;DHT22;20032;52.436;13.312;2022-07-29T12:44:55;32.10;62.90
33699;DHT22;20032;52.436;13.312;2022-07-29T12:47:21;31.30;63.80
33699;DHT22;20032;52.436;13.312;2022-07-29T12:49:47;31.70;62.90
33699;DHT22;20032;52.436;13.312;2022-07-29T12:52:31;32.40;60.30
33699;DHT22;20032;52.436;13.312;2022-07-29T12:54:57;32.60;59.90
33699;DHT22;20032;52.436;13.312;2022-07-29T12:57:24;32.50;59.60
33699;DHT22;20032;52.436;13.312;2022-07-29T13:00:14;31.90;60.00
33699;DHT22;20032;52.436;13.312;2022-07-29T13:02:41;31.30;61.90
33699;DHT22;20032;52.436;13.312;2022-07-29T13:05:09;31.00;62.60
33699;DHT22;20032;52.436;13.312;2022-07-29T13:07:35;31.10;64.50
33699;DHT22;20032;52.436;13.312;2022-07-29T13:10:18;31.70;63.20
33699;DHT22;20032;52.436;13.312;2022-07-29T13:13:08;32.60;60.70
33699;DHT22;20032;52.436;13.312;2022-07-29T13:15:38;33.10;60.10
33699;DHT22;20032;52.436;13.312;2022-07-29T13:18:04;33.50;60.10
33699;DHT22;20032;52.436;13.312;2022-07-29T13:20:30;34.00;58.40
33699;DHT22;20032;52.436;13.312;2022-07-29T13:22:58;33.90;58.50
33699;DHT22;20032;52.436;13.312;2022-07-29T13:25:27;33.80;59.50
33699;DHT22;20032;52.436;13.312;2022-07-29T13:27:53;33.70;58.60
33699;DHT22;20032;52.436;13.312;2022-07-29T13:30:20;34.20;58.90
33699;DHT22;20032;52.436;13.312;2022-07-29T13:32:46;34.40;58.80
33699;DHT22;20032;52.436;13.312;2022-07-29T13:35:12;34.70;58.20
33699;DHT22;20032;52.436;13.312;2022-07-29T13:37:39;35.40;56.70
33699;DHT22;20032;52.436;13.312;2022-07-29T13:40:06;35.30;56.40
33699;DHT22;20032;52.436;13.312;2022-07-29T13:42:32;35.00;56.00
33699;DHT22;20032;52.436;13.312;2022-07-29T13:44:58;35.30;55.70
33699;DHT22;20032;52.436;13.312;2022-07-29T13:47:24;35.90;54.90
33699;DHT22;20032;52.436;13.312;2022-07-29T13:49:50;36.00;54.80
33699;DHT22;20032;52.436;13.312;2022-07-29T13:52:16;35.30;55.80
33699;DHT22;20032;52.436;13.312;2022-07-29T13:54:42;35.10;55.90
33699;DHT22;20032;52.436;13.312;2022-07-29T13:57:08;35.10;56.00
33699;DHT22;20032;52.436;13.312;2022-07-29T13:59:34;35.10;56.00
33699;DHT22;20032;52.436;13.312;2022-07-29T14:02:00;35.10;55.80
33699;DHT22;20032;52.436;13.312;2022-07-29T14:04:25;35.40;56.00
33699;DHT22;20032;52.436;13.312;2022-07-29T14:06:51;35.10;55.50
33699;DHT22;20032;52.436;13.312;2022-07-29T14:09:16;34.50;56.90
33699;DHT22;20032;52.436;13.312;2022-07-29T14:11:42;33.20;58.00
33699;DHT22;20032;52.436;13.312;2022-07-29T14:14:07;33.10;58.60
33699;DHT22;20032;52.436;13.312;2022-07-29T14:16:34;32.50;58.80
33699;DHT22;20032;52.436;13.312;2022-07-29T14:18:59;32.90;58.60
33699;DHT22;20032;52.436;13.312;2022-07-29T14:21:25;33.90;58.50
33699;DHT22;20032;52.436;13.312;2022-07-29T14:23:50;34.90;56.30
33699;DHT22;20032;52.436;13.312;2022-07-29T14:26:17;34.20;56.90
33699;DHT22;20032;52.436;13.312;2022-07-29T14:28:43;33.50;57.80
33699;DHT22;20032;52.436;13.312;2022-07-29T14:31:09;33.80;57.30
33699;DHT22;20032;52.436;13.312;2022-07-29T14:33:35;34.70;56.70
33699;DHT22;20032;52.436;13.312;2022-07-29T14:36:00;34.90;55.40
33699;DHT22;20032;52.436;13.312;2022-07-29T14:38:26;35.40;54.20
33699;DHT22;20032;52.436;13.312;2022-07-29T14:40:51;35.10;54.80
33699;DHT22;20032;52.436;13.312;2022-07-29T14:43:17;35.00;54.20
33699;DHT22;20032;52.436;13.312;2022-07-29T14:45:42;34.10;56.10
33699;DHT22;20032;52.436;13.312;2022-07-29T14:48:08;33.40;57.30
33699;DHT22;20032;52.436;13.312;2022-07-29T14:50:33;33.50;57.20
33699;DHT22;20032;52.436;13.312;2022-07-29T14:52:59;34.00;56.80
33699;DHT22;20032;52.436;13.312;2022-07-29T14:55:25;34.70;54.70
33699;DHT22;20032;52.436;13.312;2022-07-29T14:57:51;34.90;54.50
33699;DHT22;20032;52.436;13.312;2022-07-29T15:00:17;35.00;55.30
33699;DHT22;20032;52.436;13.312;2022-07-29T15:02:43;36.00;53.30
33699;DHT22;20032;52.436;13.312;2022-07-29T15:05:08;35.70;52.30
33699;DHT22;20032;52.436;13.312;2022-07-29T15:07:34;35.50;52.60
33699;DHT22;20032;52.436;13.312;2022-07-29T15:09:59;35.00;53.00
33699;DHT22;20032;52.436;13.312;2022-07-29T15:12:25;34.20;54.50
33699;DHT22;20032;52.436;13.312;2022-07-29T15:14:50;33.10;55.60
33699;DHT22;20032;52.436;13.312;2022-07-29T15:17:16;32.10;56.70
33699;DHT22;20032;52.436;13.312;2022-07-29T15:19:41;31.30;57.70
33699;DHT22;20032;52.436;13.312;2022-07-29T15:22:07;30.90;58.30
33699;DHT22;20032;52.436;13.312;2022-07-29T15:24:32;30.70;58.70
33699;DHT22;20032;52.436;13.312;2022-07-29T15:26:58;30.50;59.60
33699;DHT22;20032;52.436;13.312;2022-07-29T15:29:23;31.20;60.10
33699;DHT22;20032;52.436;13.312;2022-07-29T15:31:49;32.70;57.50
33699;DHT22;20032;52.436;13.312;2022-07-29T15:34:14;34.00;55.50